createdAt,value
2018-03-15T00:00:47.623Z,21.60
2018-03-15T00:01:47.613Z,21.65
2018-03-15T00:02:47.608Z,21.66
2018-03-15T00:03:47.597Z,21.62
2018-03-15T00:04:47.589Z,21.62
2018-03-15T00:05:47.582Z,21.66
2018-03-15T00:06:47.579Z,21.69
2018-03-15T00:07:47.565Z,21.65
2018-03-15T00:08:47.559Z,21.56
2018-03-15T00:09:47.548Z,21.65
2018-03-15T00:10:47.549Z,21.66
2018-03-15T00:11:47.536Z,21.69
2018-03-15T00:12:47.527Z,21.58
2018-03-15T00:13:47.518Z,21.62
2018-03-15T00:14:47.510Z,21.63
2018-03-15T00:15:47.502Z,21.56
2018-03-15T00:16:47.492Z,21.59
2018-03-15T00:17:47.483Z,21.60
2018-03-15T00:18:47.477Z,21.54
2018-03-15T00:19:47.471Z,21.69
2018-03-15T00:20:47.459Z,21.60
2018-03-15T00:21:47.453Z,21.63
2018-03-15T00:22:47.445Z,21.56
2018-03-15T00:23:47.437Z,21.63
2018-03-15T00:24:47.428Z,21.65
2018-03-15T00:25:47.420Z,21.60
2018-03-15T00:26:47.416Z,21.50
2018-03-15T00:27:47.416Z,21.56
2018-03-15T00:28:47.396Z,21.53
2018-03-15T00:29:47.389Z,21.60
2018-03-15T00:30:47.381Z,21.50
2018-03-15T00:31:47.373Z,21.47
2018-03-15T00:32:47.364Z,21.50
2018-03-15T00:33:47.356Z,21.51
2018-03-15T00:34:47.354Z,21.48
2018-03-15T00:35:47.342Z,21.48
2018-03-15T00:36:47.333Z,21.48
2018-03-15T00:37:47.322Z,21.53
2018-03-15T00:38:47.324Z,21.60
2018-03-15T00:39:47.366Z,21.54
2018-03-15T00:40:47.302Z,21.50
2018-03-15T00:41:47.294Z,21.60
2018-03-15T00:42:47.285Z,21.50
2018-03-15T00:43:47.277Z,21.53
2018-03-15T00:44:47.269Z,21.51
2018-03-15T00:45:47.259Z,21.62
2018-03-15T00:46:47.252Z,21.53
2018-03-15T00:47:47.248Z,21.65
2018-03-15T00:48:47.239Z,21.51
2018-03-15T00:49:47.227Z,21.69
2018-03-15T00:50:47.223Z,21.63
2018-03-15T00:51:47.221Z,21.70
2018-03-15T00:52:47.205Z,21.66
2018-03-15T00:53:47.198Z,21.62
2018-03-15T00:54:47.188Z,21.62
2018-03-15T00:55:47.180Z,21.56
2018-03-15T00:56:47.174Z,21.70
2018-03-15T00:57:47.171Z,21.63
2018-03-15T00:58:47.160Z,21.63
2018-03-15T00:59:47.147Z,21.68
2018-03-15T01:00:47.141Z,21.63
2018-03-15T01:01:47.133Z,21.62
2018-03-15T01:02:47.125Z,21.59
2018-03-15T01:03:47.114Z,21.59
2018-03-15T01:04:47.110Z,21.68
2018-03-15T01:05:47.102Z,21.65
2018-03-15T01:06:47.093Z,21.65
2018-03-15T01:07:47.084Z,21.60
2018-03-15T01:08:47.074Z,21.63
2018-03-15T01:09:47.083Z,21.66
2018-03-15T01:10:47.061Z,21.59
2018-03-15T01:11:47.055Z,21.66
2018-03-15T01:12:47.045Z,21.65
2018-03-15T01:13:47.035Z,21.65
2018-03-15T01:14:47.029Z,21.62
2018-03-15T01:15:47.028Z,21.59
2018-03-15T01:16:47.015Z,21.63
2018-03-15T01:17:47.005Z,21.69
2018-03-15T01:18:46.997Z,21.65
2018-03-15T01:19:46.987Z,21.68
2018-03-15T01:20:46.979Z,21.66
2018-03-15T01:21:46.982Z,21.59
2018-03-15T01:22:46.979Z,21.66
2018-03-15T01:23:46.956Z,21.66
2018-03-15T01:24:46.948Z,21.63
2018-03-15T01:25:46.939Z,21.62
2018-03-15T01:26:46.932Z,21.66
2018-03-15T01:27:46.929Z,21.68
2018-03-15T01:28:46.921Z,21.63
2018-03-15T01:29:46.908Z,21.69
2018-03-15T01:30:46.900Z,21.66
2018-03-15T01:31:46.891Z,21.62
2018-03-15T01:32:46.885Z,21.51
2018-03-15T01:33:46.879Z,21.59
2018-03-15T01:34:46.868Z,21.62
2018-03-15T01:35:46.863Z,21.51
2018-03-15T01:36:46.854Z,21.66
2018-03-15T01:37:46.840Z,21.59
2018-03-15T01:38:46.834Z,21.59
2018-03-15T01:39:46.829Z,21.56
2018-03-15T01:40:46.820Z,21.53
2018-03-15T01:41:46.810Z,21.59
2018-03-15T01:42:46.808Z,21.62
2018-03-15T01:43:46.790Z,21.62
2018-03-15T01:44:46.788Z,21.60
2018-03-15T01:45:46.788Z,21.62
2018-03-15T01:46:46.771Z,21.58
2018-03-15T01:47:46.765Z,21.65
2018-03-15T01:48:46.756Z,21.50
2018-03-15T01:49:46.754Z,21.51
2018-03-15T01:50:46.743Z,21.60
2018-03-15T01:51:46.733Z,21.65
2018-03-15T01:52:46.724Z,21.65
2018-03-15T01:53:46.713Z,21.62
2018-03-15T01:54:46.706Z,21.65
2018-03-15T01:55:46.703Z,21.60
2018-03-15T01:56:46.692Z,21.60
2018-03-15T01:57:46.682Z,21.51
2018-03-15T01:58:46.675Z,21.60
2018-03-15T01:59:46.665Z,21.59
2018-03-15T02:00:46.660Z,21.53
2018-03-15T02:01:46.655Z,21.58
2018-03-15T02:02:46.644Z,21.60
2018-03-15T02:03:46.636Z,21.51
2018-03-15T02:04:46.629Z,21.56
2018-03-15T02:05:46.620Z,21.65
2018-03-15T02:06:46.610Z,21.65
2018-03-15T02:07:46.607Z,21.50
2018-03-15T02:08:46.596Z,21.50
2018-03-15T02:09:46.594Z,21.51
2018-03-15T02:10:46.579Z,21.60
2018-03-15T02:11:46.571Z,21.59
2018-03-15T02:12:46.562Z,21.65
2018-03-15T02:13:46.557Z,21.65
2018-03-15T02:14:46.548Z,21.58
2018-03-15T02:15:46.539Z,21.56
2018-03-15T02:16:46.570Z,21.53
2018-03-15T02:17:46.521Z,21.58
2018-03-15T02:18:46.512Z,21.51
2018-03-15T02:19:46.515Z,21.53
2018-03-15T02:20:46.500Z,21.54
2018-03-15T02:21:46.490Z,21.53
2018-03-15T02:22:46.484Z,21.54
2018-03-15T02:23:46.477Z,21.54
2018-03-15T02:24:46.467Z,21.62
2018-03-15T02:25:46.461Z,21.53
2018-03-15T02:26:46.450Z,21.50
2018-03-15T02:27:46.443Z,21.51
2018-03-15T02:28:46.436Z,21.50
2018-03-15T02:29:46.429Z,21.53
2018-03-15T02:30:46.419Z,21.48
2018-03-15T02:31:46.413Z,21.48
2018-03-15T02:32:46.403Z,21.51
2018-03-15T02:33:46.397Z,21.54
2018-03-15T02:34:46.386Z,21.54
2018-03-15T02:35:46.380Z,21.50
2018-03-15T02:36:46.372Z,21.56
2018-03-15T02:37:46.363Z,21.56
2018-03-15T02:38:46.356Z,21.50
2018-03-15T02:39:46.346Z,21.58
2018-03-15T02:40:46.338Z,21.48
2018-03-15T02:41:46.328Z,21.53
2018-03-15T02:42:46.321Z,21.51
2018-03-15T02:43:46.316Z,21.60
2018-03-15T02:44:46.315Z,21.58
2018-03-15T02:45:46.300Z,21.53
2018-03-15T02:46:46.291Z,21.56
2018-03-15T02:47:46.283Z,21.54
2018-03-15T02:48:46.275Z,21.48
2018-03-15T02:49:46.266Z,21.56
2018-03-15T02:50:46.258Z,21.47
2018-03-15T02:51:46.250Z,21.51
2018-03-15T02:52:46.241Z,21.53
2018-03-15T02:53:46.245Z,21.53
2018-03-15T02:54:46.222Z,21.51
2018-03-15T02:55:46.218Z,21.48
2018-03-15T02:56:46.211Z,21.54
2018-03-15T02:57:46.203Z,21.56
2018-03-15T02:58:46.192Z,21.53
2018-03-15T02:59:46.191Z,21.53
2018-03-15T03:00:46.182Z,21.62
2018-03-15T03:01:46.202Z,21.62
2018-03-15T03:02:46.162Z,21.53
2018-03-15T03:03:46.153Z,21.50
2018-03-15T03:04:46.146Z,21.56
2018-03-15T03:05:46.139Z,21.54
2018-03-15T03:06:46.130Z,21.51
2018-03-15T03:07:46.120Z,21.51
2018-03-15T03:08:46.116Z,21.50
2018-03-15T03:09:46.168Z,21.51
2018-03-15T03:10:46.097Z,21.48
2018-03-15T03:11:46.090Z,21.50
2018-03-15T03:12:46.081Z,21.50
2018-03-15T03:13:46.073Z,21.53
2018-03-15T03:14:46.066Z,21.51
2018-03-15T03:15:46.055Z,21.50
2018-03-15T03:16:46.050Z,21.50
2018-03-15T03:17:46.041Z,21.56
2018-03-15T03:18:46.028Z,21.48
2018-03-15T03:19:46.025Z,21.43
2018-03-15T03:20:46.021Z,21.48
2018-03-15T03:21:46.017Z,21.51
2018-03-15T03:22:46.000Z,21.53
2018-03-15T03:23:45.992Z,21.48
2018-03-15T03:24:45.984Z,21.48
2018-03-15T03:25:45.975Z,21.47
2018-03-15T03:26:45.969Z,21.53
2018-03-15T03:27:45.959Z,21.51
2018-03-15T03:28:45.957Z,21.48
2018-03-15T03:29:45.944Z,21.54
2018-03-15T03:30:45.944Z,21.51
2018-03-15T03:31:45.965Z,21.47
2018-03-15T03:32:45.960Z,21.47
2018-03-15T03:33:45.917Z,21.47
2018-03-15T03:34:45.904Z,21.56
2018-03-15T03:35:45.925Z,21.50
2018-03-15T03:36:45.888Z,21.50
2018-03-15T03:37:45.882Z,21.41
2018-03-15T03:38:45.870Z,21.54
2018-03-15T03:39:45.861Z,21.50
2018-03-15T03:40:45.885Z,21.51
2018-03-15T03:41:45.848Z,21.56
2018-03-15T03:42:45.837Z,21.44
2018-03-15T03:43:45.829Z,21.47
2018-03-15T03:44:45.824Z,21.50
2018-03-15T03:45:45.820Z,21.53
2018-03-15T03:46:45.806Z,21.50
2018-03-15T03:47:45.799Z,21.48
2018-03-15T03:48:45.792Z,21.53
2018-03-15T03:49:45.784Z,21.48
2018-03-15T03:50:45.772Z,21.51
2018-03-15T03:51:45.768Z,21.50
2018-03-15T03:52:45.758Z,21.51
2018-03-15T03:53:45.752Z,21.54
2018-03-15T03:54:45.742Z,21.56
2018-03-15T03:55:45.734Z,21.53
2018-03-15T03:56:45.724Z,21.51
2018-03-15T03:57:45.721Z,21.58
2018-03-15T03:58:45.706Z,21.60
2018-03-15T03:59:45.703Z,21.51
2018-03-15T04:00:45.699Z,21.47
2018-03-15T04:01:45.684Z,21.51
2018-03-15T04:02:45.678Z,21.65
2018-03-15T04:03:45.669Z,21.62
2018-03-15T04:04:45.659Z,21.60
2018-03-15T04:05:45.655Z,21.66
2018-03-15T04:06:45.644Z,21.72
2018-03-15T04:07:45.636Z,21.77
2018-03-15T04:08:45.628Z,21.74
2018-03-15T04:09:45.625Z,21.78
2018-03-15T04:10:45.608Z,21.74
2018-03-15T04:11:45.603Z,21.78
2018-03-15T04:12:45.601Z,21.78
2018-03-15T04:13:45.595Z,21.74
2018-03-15T04:14:45.580Z,21.78
2018-03-15T04:15:45.600Z,21.81
2018-03-15T04:16:45.563Z,21.83
2018-03-15T04:17:45.557Z,21.84
2018-03-15T04:18:45.546Z,21.85
2018-03-15T04:19:45.539Z,21.84
2018-03-15T04:20:45.540Z,21.83
2018-03-15T04:21:45.524Z,21.91
2018-03-15T04:22:45.517Z,21.85
2018-03-15T04:23:45.509Z,21.88
2018-03-15T04:24:45.502Z,21.89
2018-03-15T04:25:45.503Z,21.88
2018-03-15T04:26:45.483Z,21.91
2018-03-15T04:27:45.477Z,21.85
2018-03-15T04:28:45.470Z,21.88
2018-03-15T04:29:45.460Z,21.88
2018-03-15T04:30:45.454Z,21.94
2018-03-15T04:31:45.451Z,21.88
2018-03-15T04:32:45.444Z,21.85
2018-03-15T04:33:45.432Z,21.85
2018-03-15T04:34:45.421Z,21.89
2018-03-15T04:35:45.413Z,21.91
2018-03-15T04:36:45.405Z,21.88
2018-03-15T04:37:45.404Z,21.97
2018-03-15T04:38:45.390Z,21.92
2018-03-15T04:39:45.383Z,21.94
2018-03-15T04:40:45.376Z,22.06
2018-03-15T04:41:45.364Z,21.99
2018-03-15T04:42:45.362Z,21.96
2018-03-15T04:43:45.354Z,22.10
2018-03-15T04:44:45.343Z,22.03
2018-03-15T04:45:45.336Z,22.08
2018-03-15T04:46:45.334Z,22.07
2018-03-15T04:47:45.320Z,22.06
2018-03-15T04:48:45.315Z,22.07
2018-03-15T04:49:45.310Z,22.10
2018-03-15T04:50:45.295Z,22.08
2018-03-15T04:51:45.287Z,22.04
2018-03-15T04:52:45.279Z,22.00
2018-03-15T04:53:45.274Z,21.91
2018-03-15T04:54:45.265Z,21.84
2018-03-15T04:55:45.254Z,21.72
2018-03-15T04:56:45.251Z,21.68
2018-03-15T04:57:45.239Z,21.66
2018-03-15T04:58:45.232Z,21.69
2018-03-15T04:59:45.225Z,21.65
2018-03-15T05:00:45.223Z,21.63
2018-03-15T05:01:45.217Z,21.68
2018-03-15T05:02:45.202Z,21.51
2018-03-15T05:03:45.192Z,21.63
2018-03-15T05:04:45.184Z,21.51
2018-03-15T05:05:45.222Z,21.59
2018-03-15T05:06:45.170Z,21.63
2018-03-15T05:07:45.163Z,21.69
2018-03-15T05:08:45.155Z,21.62
2018-03-15T05:09:45.144Z,21.70
2018-03-15T05:10:45.135Z,21.62
2018-03-15T05:11:45.128Z,21.60
2018-03-15T05:12:45.126Z,21.63
2018-03-15T05:13:45.113Z,21.65
2018-03-15T05:14:45.102Z,21.70
2018-03-15T05:15:45.096Z,21.63
2018-03-15T05:16:45.087Z,21.69
2018-03-15T05:17:45.082Z,21.69
2018-03-15T05:18:45.074Z,21.72
2018-03-15T05:19:45.065Z,21.69
2018-03-15T05:20:45.067Z,21.77
2018-03-15T05:21:45.047Z,21.77
2018-03-15T05:22:45.036Z,21.80
2018-03-15T05:23:45.030Z,21.77
2018-03-15T05:24:45.024Z,21.77
2018-03-15T05:25:45.016Z,21.80
2018-03-15T05:26:45.008Z,21.74
2018-03-15T05:27:44.998Z,21.83
2018-03-15T05:28:44.992Z,21.84
2018-03-15T05:29:44.984Z,21.83
2018-03-15T05:30:44.976Z,21.89
2018-03-15T05:31:44.968Z,21.85
2018-03-15T05:32:44.960Z,21.85
2018-03-15T05:33:44.951Z,21.84
2018-03-15T05:34:44.944Z,21.94
2018-03-15T05:35:44.934Z,21.92
2018-03-15T05:36:44.933Z,21.91
2018-03-15T05:37:44.926Z,21.91
2018-03-15T05:38:44.911Z,21.97
2018-03-15T05:39:44.904Z,21.91
2018-03-15T05:40:44.896Z,21.89
2018-03-15T05:41:44.887Z,21.97
2018-03-15T05:42:44.881Z,21.89
2018-03-15T05:43:44.872Z,21.91
2018-03-15T05:44:44.863Z,22.01
2018-03-15T05:45:44.853Z,21.97
2018-03-15T05:46:44.861Z,22.00
2018-03-15T05:47:44.840Z,21.91
2018-03-15T05:48:44.833Z,21.97
2018-03-15T05:49:44.823Z,22.01
2018-03-15T05:50:44.816Z,21.97
2018-03-15T05:51:44.808Z,21.99
2018-03-15T05:52:44.804Z,21.94
2018-03-15T05:53:44.794Z,21.99
2018-03-15T05:54:44.784Z,22.03
2018-03-15T05:55:44.779Z,21.94
2018-03-15T05:56:44.766Z,22.00
2018-03-15T05:57:44.760Z,21.94
2018-03-15T05:58:44.756Z,21.97
2018-03-15T05:59:44.744Z,21.94
2018-03-15T06:00:44.736Z,21.91
2018-03-15T06:01:44.730Z,21.99
2018-03-15T06:02:44.721Z,21.94
2018-03-15T06:03:44.710Z,21.89
2018-03-15T06:04:44.707Z,21.88
2018-03-15T06:05:44.701Z,21.85
2018-03-15T06:06:44.688Z,21.83
2018-03-15T06:07:44.683Z,21.78
2018-03-15T06:08:44.671Z,21.83
2018-03-15T06:09:44.666Z,21.80
2018-03-15T06:10:44.663Z,21.84
2018-03-15T06:11:44.651Z,21.80
2018-03-15T06:12:44.644Z,21.85
2018-03-15T06:13:44.636Z,21.84
2018-03-15T06:14:44.625Z,21.83
2018-03-15T06:15:44.619Z,21.84
2018-03-15T06:16:44.612Z,21.78
2018-03-15T06:17:44.600Z,21.85
2018-03-15T06:18:44.599Z,21.88
2018-03-15T06:19:44.587Z,21.91
2018-03-15T06:20:44.579Z,21.88
2018-03-15T06:21:44.573Z,21.91
2018-03-15T06:22:44.563Z,21.89
2018-03-15T06:23:44.564Z,21.91
2018-03-15T06:24:44.548Z,21.89
2018-03-15T06:25:44.541Z,21.96
2018-03-15T06:26:44.532Z,21.97
2018-03-15T06:27:44.523Z,21.94
2018-03-15T06:28:44.513Z,21.92
2018-03-15T06:29:44.515Z,21.99
2018-03-15T06:30:44.506Z,21.92
2018-03-15T06:31:44.491Z,22.03
2018-03-15T06:32:44.484Z,21.94
2018-03-15T06:33:44.476Z,22.03
2018-03-15T06:34:44.468Z,22.04
2018-03-15T06:35:44.466Z,22.06
2018-03-15T06:36:44.452Z,22.04
2018-03-15T06:37:44.443Z,22.08
2018-03-15T06:38:44.440Z,22.07
2018-03-15T06:39:44.428Z,22.07
2018-03-15T06:40:44.420Z,22.08
2018-03-15T06:41:44.415Z,22.03
2018-03-15T06:42:44.409Z,22.08
2018-03-15T06:43:44.402Z,22.14
2018-03-15T06:44:44.390Z,22.14
2018-03-15T06:45:44.396Z,22.16
2018-03-15T06:46:44.373Z,22.14
2018-03-15T06:47:44.370Z,22.22
2018-03-15T06:48:44.360Z,22.22
2018-03-15T06:49:44.355Z,22.18
2018-03-15T06:50:44.342Z,22.23
2018-03-15T06:51:44.336Z,22.21
2018-03-15T06:52:44.321Z,22.19
2018-03-15T06:53:44.317Z,22.30
2018-03-15T06:54:44.312Z,22.21
2018-03-15T06:55:44.305Z,22.25
2018-03-15T06:56:44.297Z,22.23
2018-03-15T06:57:44.291Z,22.26
2018-03-15T06:58:44.281Z,22.28
2018-03-15T06:59:44.272Z,22.22
2018-03-15T07:00:44.266Z,22.31
2018-03-15T07:01:44.257Z,22.30
2018-03-15T07:02:44.250Z,22.23
2018-03-15T07:03:44.246Z,22.26
2018-03-15T07:04:44.234Z,22.30
2018-03-15T07:05:44.245Z,22.25
2018-03-15T07:06:44.232Z,22.25
2018-03-15T07:07:44.213Z,22.28
2018-03-15T07:08:44.212Z,22.26
2018-03-15T07:09:44.194Z,22.30
2018-03-15T07:10:44.187Z,22.31
2018-03-15T07:11:44.181Z,22.31
2018-03-15T07:12:44.176Z,22.40
2018-03-15T07:13:44.164Z,22.34
2018-03-15T07:14:44.157Z,22.37
2018-03-15T07:15:44.149Z,22.36
2018-03-15T07:16:44.142Z,22.36
2018-03-15T07:17:44.133Z,22.34
2018-03-15T07:18:44.127Z,22.40
2018-03-15T07:19:44.118Z,22.41
2018-03-15T07:20:44.112Z,22.41
2018-03-15T07:21:44.107Z,22.43
2018-03-15T07:22:44.103Z,22.49
2018-03-15T07:23:44.088Z,22.40
2018-03-15T07:24:44.081Z,22.52
2018-03-15T07:25:44.072Z,22.55
2018-03-15T07:26:44.066Z,22.58
2018-03-15T07:27:44.060Z,22.53
2018-03-15T07:28:44.050Z,22.46
2018-03-15T07:29:44.042Z,22.53
2018-03-15T07:30:44.038Z,22.59
2018-03-15T07:31:44.032Z,22.71
2018-03-15T07:32:44.020Z,22.68
2018-03-15T07:33:44.015Z,22.70
2018-03-15T07:34:44.005Z,22.76
2018-03-15T07:35:44.002Z,22.86
2018-03-15T07:36:43.990Z,22.81
2018-03-15T07:37:43.983Z,22.83
2018-03-15T07:38:43.974Z,22.88
2018-03-15T07:39:43.968Z,22.92
2018-03-15T07:40:43.965Z,22.96
2018-03-15T07:41:43.952Z,22.95
2018-03-15T07:42:43.944Z,22.98
2018-03-15T07:43:43.936Z,23.08
2018-03-15T07:44:43.929Z,23.06
2018-03-15T07:45:43.926Z,23.07
2018-03-15T07:46:43.916Z,23.16
2018-03-15T07:47:43.908Z,23.13
2018-03-15T07:48:43.897Z,23.20
2018-03-15T07:49:43.892Z,23.21
2018-03-15T07:50:43.886Z,23.32
2018-03-15T07:51:43.894Z,23.28
2018-03-15T07:52:43.874Z,23.34
2018-03-15T07:53:43.864Z,23.34
2018-03-15T07:54:43.858Z,23.39
2018-03-15T07:55:43.851Z,23.37
2018-03-15T07:56:43.846Z,23.44
2018-03-15T07:57:43.835Z,23.44
2018-03-15T07:58:43.829Z,23.34
2018-03-15T07:59:43.823Z,23.44
2018-03-15T08:00:43.815Z,23.37
2018-03-15T08:01:43.810Z,23.37
2018-03-15T08:02:43.799Z,23.39
2018-03-15T08:03:43.795Z,23.33
2018-03-15T08:04:43.785Z,23.32
2018-03-15T08:05:43.779Z,23.32
2018-03-15T08:06:43.771Z,23.34
2018-03-15T08:07:43.764Z,23.37
2018-03-15T08:08:43.757Z,23.29
2018-03-15T08:09:43.749Z,23.23
2018-03-15T08:10:43.743Z,23.26
2018-03-15T08:11:43.737Z,23.26
2018-03-15T08:12:43.732Z,23.20
2018-03-15T08:13:43.720Z,23.29
2018-03-15T08:14:43.718Z,23.28
2018-03-15T08:15:43.707Z,23.26
2018-03-15T08:16:43.699Z,23.18
2018-03-15T08:17:43.691Z,23.20
2018-03-15T08:18:43.689Z,23.28
2018-03-15T08:19:43.679Z,23.28
2018-03-15T08:20:43.672Z,23.21
2018-03-15T08:21:43.666Z,23.21
2018-03-15T08:22:43.656Z,23.23
2018-03-15T08:23:43.655Z,23.33
2018-03-15T08:24:43.642Z,23.34
2018-03-15T08:25:43.641Z,23.32
2018-03-15T08:26:43.630Z,23.25
2018-03-15T08:27:43.622Z,23.33
2018-03-15T08:28:43.616Z,23.32
2018-03-15T08:29:43.605Z,23.26
2018-03-15T08:30:43.598Z,23.28
2018-03-15T08:31:43.593Z,23.32
2018-03-15T08:32:43.593Z,23.42
2018-03-15T08:33:43.579Z,23.29
2018-03-15T08:34:43.570Z,23.32
2018-03-15T08:35:43.566Z,23.42
2018-03-15T08:36:43.558Z,23.47
2018-03-15T08:37:43.549Z,23.45
2018-03-15T08:38:43.544Z,23.37
2018-03-15T08:39:43.535Z,23.42
2018-03-15T08:40:43.538Z,23.48
2018-03-15T08:41:43.536Z,23.54
2018-03-15T08:42:43.515Z,23.52
2018-03-15T08:43:43.508Z,23.58
2018-03-15T08:44:43.500Z,23.55
2018-03-15T08:45:43.493Z,23.63
2018-03-15T08:46:43.486Z,23.67
2018-03-15T08:47:43.481Z,23.67
2018-03-15T08:48:43.472Z,23.63
2018-03-15T08:49:43.466Z,23.62
2018-03-15T08:50:43.507Z,23.58
2018-03-15T08:51:43.500Z,23.59
2018-03-15T08:52:43.446Z,23.56
2018-03-15T08:53:43.436Z,23.59
2018-03-15T08:54:43.430Z,23.52
2018-03-15T08:55:43.426Z,23.52
2018-03-15T08:56:43.420Z,23.45
2018-03-15T08:57:43.407Z,23.47
2018-03-15T08:58:43.403Z,23.42
2018-03-15T08:59:43.399Z,23.44
2018-03-15T09:00:43.389Z,23.34
2018-03-15T09:01:43.382Z,23.42
2018-03-15T09:02:43.373Z,23.42
2018-03-15T09:03:43.366Z,23.44
2018-03-15T09:04:43.398Z,23.51
2018-03-15T09:05:43.354Z,23.33
2018-03-15T09:06:43.349Z,23.42
2018-03-15T09:07:43.348Z,23.44
2018-03-15T09:08:43.343Z,23.45
2018-03-15T09:09:43.328Z,23.40
2018-03-15T09:10:43.322Z,23.44
2018-03-15T09:11:43.310Z,23.44
2018-03-15T09:12:43.304Z,23.45
2018-03-15T09:13:43.304Z,23.42
2018-03-15T09:14:43.291Z,23.51
2018-03-15T09:15:43.287Z,23.51
2018-03-15T09:16:43.281Z,23.52
2018-03-15T09:17:43.270Z,23.51
2018-03-15T09:18:43.261Z,23.54
2018-03-15T09:19:43.258Z,23.56
2018-03-15T09:20:43.255Z,23.52
2018-03-15T09:21:43.254Z,23.59
2018-03-15T09:22:43.236Z,23.58
2018-03-15T09:23:43.228Z,23.62
2018-03-15T09:24:43.223Z,23.69
2018-03-15T09:25:43.214Z,23.70
2018-03-15T09:26:43.209Z,23.66
2018-03-15T09:27:43.205Z,23.71
2018-03-15T09:28:43.195Z,23.73
2018-03-15T09:29:43.188Z,23.74
2018-03-15T09:30:43.182Z,23.69
2018-03-15T09:31:43.173Z,23.74
2018-03-15T09:32:43.166Z,23.74
2018-03-15T09:33:43.160Z,23.69
2018-03-15T09:34:43.155Z,23.63
2018-03-15T09:35:43.148Z,23.67
2018-03-15T09:36:43.140Z,23.66
2018-03-15T09:37:43.133Z,23.70
2018-03-15T09:38:43.127Z,23.62
2018-03-15T09:39:43.117Z,23.62
2018-03-15T09:40:43.111Z,23.67
2018-03-15T09:41:43.108Z,23.67
2018-03-15T09:42:43.099Z,23.66
2018-03-15T09:43:43.092Z,23.63
2018-03-15T09:44:43.086Z,23.64
2018-03-15T09:45:43.117Z,23.58
2018-03-15T09:46:43.070Z,23.63
2018-03-15T09:47:43.064Z,23.63
2018-03-15T09:48:43.058Z,23.62
2018-03-15T09:49:43.050Z,23.56
2018-03-15T09:50:43.044Z,23.55
2018-03-15T09:51:43.039Z,23.54
2018-03-15T09:52:43.031Z,23.54
2018-03-15T09:53:43.023Z,23.55
2018-03-15T09:54:43.016Z,23.52
2018-03-15T09:55:43.008Z,23.54
2018-03-15T09:56:43.003Z,23.55
2018-03-15T09:57:42.996Z,23.54
2018-03-15T09:58:42.991Z,23.55
2018-03-15T09:59:42.981Z,23.55
2018-03-15T10:00:42.981Z,23.51
2018-03-15T10:01:42.967Z,23.56
2018-03-15T10:02:42.963Z,23.59
2018-03-15T10:03:42.955Z,23.55
2018-03-15T10:04:42.952Z,23.58
2018-03-15T10:05:42.960Z,23.67
2018-03-15T10:06:42.935Z,23.69
2018-03-15T10:07:42.924Z,23.73
2018-03-15T10:08:42.920Z,23.71
2018-03-15T10:09:42.914Z,23.69
2018-03-15T10:10:42.906Z,23.82
2018-03-15T10:11:42.902Z,23.74
2018-03-15T10:12:42.893Z,23.69
2018-03-15T10:13:42.885Z,23.74
2018-03-15T10:14:42.882Z,23.71
2018-03-15T10:15:42.874Z,23.76
2018-03-15T10:16:42.866Z,23.69
2018-03-15T10:17:42.860Z,23.73
2018-03-15T10:18:42.857Z,23.70
2018-03-15T10:19:42.846Z,23.71
2018-03-15T10:20:42.840Z,23.71
2018-03-15T10:21:42.828Z,23.69
2018-03-15T10:22:42.824Z,23.76
2018-03-15T10:23:42.819Z,23.71
2018-03-15T10:24:42.818Z,23.70
2018-03-15T10:25:42.805Z,23.70
2018-03-15T10:26:42.798Z,23.69
2018-03-15T10:27:42.792Z,23.69
2018-03-15T10:28:42.783Z,23.79
2018-03-15T10:29:42.781Z,23.70
2018-03-15T10:30:42.776Z,23.84
2018-03-15T10:31:42.772Z,23.76
2018-03-15T10:32:42.758Z,23.79
2018-03-15T10:33:42.751Z,23.89
2018-03-15T10:34:42.748Z,23.95
2018-03-15T10:35:42.738Z,23.91
2018-03-15T10:36:42.732Z,23.95
2018-03-15T10:37:42.721Z,23.92
2018-03-15T10:38:42.723Z,23.94
2018-03-15T10:39:42.711Z,24.01
2018-03-15T10:40:42.705Z,23.95
2018-03-15T10:41:42.698Z,24.03
2018-03-15T10:42:42.691Z,24.01
2018-03-15T10:43:42.698Z,23.95
2018-03-15T10:44:42.680Z,23.95
2018-03-15T10:45:42.675Z,24.06
2018-03-15T10:46:42.665Z,23.95
2018-03-15T10:47:42.662Z,24.04
2018-03-15T10:48:42.653Z,23.96
2018-03-15T10:49:42.650Z,23.94
2018-03-15T10:50:42.636Z,23.92
2018-03-15T10:51:42.633Z,23.89
2018-03-15T10:52:42.631Z,23.85
2018-03-15T10:53:42.623Z,23.82
2018-03-15T10:54:42.613Z,23.81
2018-03-15T10:55:42.606Z,23.73
2018-03-15T10:56:42.603Z,23.73
2018-03-15T10:57:42.592Z,23.70
2018-03-15T10:58:42.588Z,23.73
2018-03-15T10:59:42.578Z,23.71
2018-03-15T11:00:42.579Z,23.63
2018-03-15T11:01:42.566Z,23.71
2018-03-15T11:02:42.565Z,23.70
2018-03-15T11:03:42.553Z,23.62
2018-03-15T11:04:42.560Z,23.64
2018-03-15T11:05:42.539Z,23.62
2018-03-15T11:06:42.532Z,23.69
2018-03-15T11:07:42.531Z,23.62
2018-03-15T11:08:42.518Z,23.56
2018-03-15T11:09:42.512Z,23.69
2018-03-15T11:10:42.506Z,23.58
2018-03-15T11:11:42.503Z,23.56
2018-03-15T11:12:42.497Z,23.59
2018-03-15T11:13:42.486Z,23.63
2018-03-15T11:14:42.477Z,23.55
2018-03-15T11:15:42.476Z,23.69
2018-03-15T11:16:42.469Z,23.66
2018-03-15T11:17:42.458Z,23.59
2018-03-15T11:18:42.452Z,23.58
2018-03-15T11:19:42.446Z,23.58
2018-03-15T11:20:42.439Z,23.62
2018-03-15T11:21:42.431Z,23.59
2018-03-15T11:22:42.430Z,23.58
2018-03-15T11:23:42.476Z,23.58
2018-03-15T11:24:42.411Z,23.62
2018-03-15T11:25:42.405Z,23.62
2018-03-15T11:26:42.398Z,23.58
2018-03-15T11:27:42.391Z,23.66
2018-03-15T11:28:42.383Z,23.59
2018-03-15T11:29:42.387Z,23.59
2018-03-15T11:30:42.374Z,23.56
2018-03-15T11:31:42.364Z,23.55
2018-03-15T11:32:42.356Z,23.58
2018-03-15T11:33:42.349Z,23.56
2018-03-15T11:34:42.343Z,23.52
2018-03-15T11:35:42.337Z,23.56
2018-03-15T11:36:42.332Z,23.55
2018-03-15T11:37:42.321Z,23.55
2018-03-15T11:38:42.319Z,23.52
2018-03-15T11:39:42.308Z,23.58
2018-03-15T11:40:42.305Z,23.55
2018-03-15T11:41:42.295Z,23.56
2018-03-15T11:42:42.288Z,23.67
2018-03-15T11:43:42.340Z,23.66
2018-03-15T11:44:42.276Z,23.63
2018-03-15T11:45:42.267Z,23.66
2018-03-15T11:46:42.262Z,23.70
2018-03-15T11:47:42.255Z,23.63
2018-03-15T11:48:42.248Z,23.64
2018-03-15T11:49:42.242Z,23.62
2018-03-15T11:50:42.271Z,23.58
2018-03-15T11:51:42.227Z,23.55
2018-03-15T11:52:42.220Z,23.54
2018-03-15T11:53:42.215Z,23.56
2018-03-15T11:54:42.212Z,23.54
2018-03-15T11:55:42.201Z,23.55
2018-03-15T11:56:42.194Z,23.54
2018-03-15T11:57:42.194Z,23.48
2018-03-15T11:58:42.181Z,23.49
2018-03-15T11:59:42.178Z,23.44
2018-03-15T12:00:42.178Z,23.44
2018-03-15T12:01:42.225Z,23.40
2018-03-15T12:02:42.149Z,23.44
2018-03-15T12:03:42.145Z,23.39
2018-03-15T12:04:42.158Z,23.44
2018-03-15T12:05:42.140Z,23.40
2018-03-15T12:06:42.125Z,23.32
2018-03-15T12:07:42.192Z,23.34
2018-03-15T12:08:42.112Z,23.40
2018-03-15T12:09:42.103Z,23.28
2018-03-15T12:10:42.108Z,23.29
2018-03-15T12:11:42.090Z,23.28
2018-03-15T12:12:42.119Z,23.33
2018-03-15T12:13:42.086Z,23.33
2018-03-15T12:14:42.069Z,23.25
2018-03-15T12:15:42.065Z,23.25
2018-03-15T12:16:42.054Z,23.29
2018-03-15T12:17:42.048Z,23.29
2018-03-15T12:18:42.224Z,23.28
2018-03-15T12:19:42.035Z,23.37
2018-03-15T12:20:42.029Z,23.26
2018-03-15T12:21:42.031Z,23.28
2018-03-15T12:22:42.014Z,23.25
2018-03-15T12:23:42.008Z,23.20
2018-03-15T12:24:42.018Z,23.20
2018-03-15T12:25:41.995Z,23.18
2018-03-15T12:26:41.987Z,23.14
2018-03-15T12:27:41.985Z,23.16
2018-03-15T12:28:41.996Z,23.08
2018-03-15T12:29:41.960Z,23.18
2018-03-15T12:30:41.969Z,23.16
2018-03-15T12:31:41.952Z,23.18
2018-03-15T12:32:41.948Z,23.16
2018-03-15T12:33:41.937Z,23.16
2018-03-15T12:34:41.932Z,23.08
2018-03-15T12:35:41.924Z,23.13
2018-03-15T12:36:41.916Z,23.07
2018-03-15T12:37:41.909Z,23.06
2018-03-15T12:38:41.901Z,23.10
2018-03-15T12:39:41.895Z,23.02
2018-03-15T12:40:41.889Z,23.01
2018-03-15T12:41:41.885Z,23.02
2018-03-15T12:42:41.875Z,23.06
2018-03-15T12:43:41.867Z,22.99
2018-03-15T12:44:41.859Z,22.98
2018-03-15T12:45:41.851Z,23.01
2018-03-15T12:46:41.851Z,23.06
2018-03-15T12:47:41.840Z,23.01
2018-03-15T12:48:41.831Z,23.07
2018-03-15T12:49:41.819Z,22.98
2018-03-15T12:50:41.817Z,23.01
2018-03-15T12:51:41.810Z,23.07
2018-03-15T12:52:41.810Z,23.01